Time;durP1;ratioP1;P1;durP2;ratioP2;P2;SDS_P1;SDS_P2;PMS_P1;PMS_P2;Temp;Humidity;BMP_temperature;BMP_pressure;BME280_temperature;BME280_humidity;BME280_pressure;Samples;Min_cycle;Max_cycle;Signal;HPM_P1;HPM_P2
2021/07/11 01:16:28;;;;;;;2.83;2.27;;;18.10;99.90;;;;;;4897500;29;20472;-91
2021/07/11 01:19:04;;;;;;;2.73;2.10;;;18.20;99.90;;;;;;4897802;29;20494;-91
2021/07/11 01:21:37;;;;;;;2.43;2.23;;;18.20;99.90;;;;;;4901061;29;20448;-93
2021/07/11 01:24:21;;;;;;;3.53;2.60;;;18.20;99.90;;;;;;4904342;29;20543;-93
2021/07/11 01:26:55;;;;;;;2.63;2.23;;;18.20;99.90;;;;;;4904220;29;20508;-92
2021/07/11 01:29:28;;;;;;;2.37;2.17;;;18.20;99.90;;;;;;4903572;29;20440;-91
2021/07/11 01:32:00;;;;;;;2.50;2.30;;;18.20;99.90;;;;;;4903348;29;20451;-93
2021/07/11 01:34:27;;;;;;;4.30;2.27;;;18.20;99.90;;;;;;4903326;29;20481;-92
2021/07/11 01:36:56;;;;;;;4.23;2.57;;;18.20;99.90;;;;;;4903018;29;20479;-92
2021/07/11 01:39:23;;;;;;;3.00;2.60;;;18.20;99.90;;;;;;4902028;29;20483;-92
2021/07/11 01:41:54;;;;;;;2.50;2.30;;;18.20;99.90;;;;;;4901651;29;20464;-92
2021/07/11 01:44:36;;;;;;;2.43;2.23;;;18.10;99.90;;;;;;4901179;29;20497;-92
2021/07/11 01:47:05;;;;;;;3.63;2.97;;;18.20;99.90;;;;;;4893230;29;20460;-91
2021/07/11 01:49:43;;;;;;;2.70;2.50;;;18.20;99.90;;;;;;4894822;29;20460;-91
2021/07/11 01:52:19;;;;;;;2.53;2.33;;;18.20;99.90;;;;;;4886902;29;20465;-91
2021/07/11 01:54:46;;;;;;;3.20;2.30;;;18.20;99.90;;;;;;4888168;29;20488;-91
2021/07/11 01:57:23;;;;;;;4.03;2.47;;;18.10;99.90;;;;;;4892367;29;20564;-91
2021/07/11 01:59:50;;;;;;;3.53;2.57;;;18.10;99.90;;;;;;4889985;29;20444;-93
2021/07/11 02:03:34;;;;;;;3.50;2.77;;;18.10;99.90;;;;;;5177475;27;20274;-94
2021/07/11 02:06:08;;;;;;;3.20;2.37;;;18.10;99.90;;;;;;5153047;27;21010;-92
2021/07/11 02:08:38;;;;;;;2.60;2.40;;;18.10;99.90;;;;;;5138070;28;20435;-92
2021/07/11 02:11:11;;;;;;;2.60;2.40;;;18.10;99.90;;;;;;5137958;27;20448;-92
2021/07/11 02:13:48;;;;;;;2.20;2.03;;;18.10;99.90;;;;;;5136725;28;20448;-91
2021/07/11 02:16:24;;;;;;;4.30;2.53;;;18.20;99.90;;;;;;5138301;28;20482;-91
2021/07/11 02:18:55;;;;;;;3.27;2.97;;;18.10;99.90;;;;;;5135988;28;20447;-91
2021/07/11 02:21:23;;;;;;;2.80;2.60;;;18.10;99.90;;;;;;5141249;27;20560;-90
2021/07/11 02:23:53;;;;;;;2.50;2.30;;;18.10;99.90;;;;;;5156433;27;20447;-93
2021/07/11 02:26:28;;;;;;;2.83;2.63;;;18.10;99.90;;;;;;5156496;27;20429;-93
2021/07/11 02:28:55;;;;;;;2.83;2.20;;;18.10;99.90;;;;;;5150252;27;20460;-92
2021/07/11 02:31:26;;;;;;;2.53;2.33;;;18.10;99.90;;;;;;5151159;27;20477;-91
2021/07/11 02:33:59;;;;;;;2.70;2.50;;;18.10;99.90;;;;;;5135702;28;20451;-91
2021/07/11 02:36:33;;;;;;;2.40;2.20;;;18.10;99.90;;;;;;5125159;27;20480;-91
2021/07/11 02:39:15;;;;;;;2.73;2.50;;;18.10;99.90;;;;;;5122333;28;20454;-91
2021/07/11 02:41:48;;;;;;;2.73;2.53;;;18.00;99.90;;;;;;5119864;28;20503;-92
2021/07/11 02:44:17;;;;;;;3.07;2.30;;;18.00;99.90;;;;;;5119900;28;20473;-92
2021/07/11 02:46:50;;;;;;;3.83;2.33;;;18.10;99.90;;;;;;5121116;28;20443;-92
2021/07/11 02:49:27;;;;;;;2.50;2.30;;;18.10;99.90;;;;;;5116191;28;20476;-92
2021/07/11 02:54:45;;;;;;;2.40;2.20;;;18.00;99.90;;;;;;5137845;28;20551;-92
2021/07/11 02:57:27;;;;;;;2.63;2.43;;;18.00;99.90;;;;;;5145861;27;20527;-92
2021/07/11 02:59:56;;;;;;;2.60;2.40;;;18.00;99.90;;;;;;5139067;27;20466;-92
2021/07/11 03:02:28;;;;;;;3.57;2.40;;;18.00;99.90;;;;;;5137964;27;20477;-92
2021/07/11 03:05:02;;;;;;;2.47;2.20;;;18.00;99.90;;;;;;5145904;27;20471;-92
2021/07/11 03:07:43;;;;;;;2.57;2.37;;;18.00;99.90;;;;;;5139879;27;20502;-92
2021/07/11 03:10:12;;;;;;;3.17;2.37;;;17.90;99.90;;;;;;5115505;28;20934;-92
2021/07/11 03:12:44;;;;;;;2.97;2.70;;;17.90;99.90;;;;;;5115212;28;20447;-92
2021/07/11 03:15:18;;;;;;;3.13;2.90;;;17.80;99.90;;;;;;5106382;28;20548;-92
2021/07/11 03:17:54;;;;;;;2.63;2.43;;;17.90;99.90;;;;;;5124362;28;20446;-92
2021/07/11 03:20:28;;;;;;;2.30;2.10;;;17.90;99.90;;;;;;5125922;28;20964;-91
2021/07/11 03:23:03;;;;;;;3.20;2.03;;;17.90;99.90;;;;;;5123189;28;20477;-91
2021/07/11 03:25:39;;;;;;;2.70;2.50;;;17.90;99.90;;;;;;5141311;27;20526;-93
2021/07/11 03:28:15;;;;;;;2.67;2.47;;;17.90;99.90;;;;;;5141544;27;20467;-93
2021/07/11 03:33:42;;;;;;;3.87;2.40;;;17.90;99.90;;;;;;5058188;28;20461;-92
2021/07/11 03:36:22;;;;;;;4.60;2.50;;;17.90;99.90;;;;;;5009701;28;20457;-92
2021/07/11 03:39:07;;;;;;;5.43;2.90;;;17.90;99.90;;;;;;5003473;28;20459;-92
2021/07/11 03:41:59;;;;;;;3.43;2.93;;;17.90;99.90;;;;;;5003522;28;20510;-92
2021/07/11 03:44:36;;;;;;;4.50;2.53;;;17.80;99.90;;;;;;5002078;28;20474;-92
2021/07/11 03:47:09;;;;;;;3.90;2.77;;;17.90;99.90;;;;;;5002063;28;20474;-91
2021/07/11 03:49:40;;;;;;;3.87;3.40;;;17.90;99.90;;;;;;5008082;28;20449;-91
2021/07/11 03:52:13;;;;;;;2.57;2.37;;;17.90;99.90;;;;;;5023742;28;20458;-92
2021/07/11 03:54:42;;;;;;;3.07;2.47;;;17.90;99.90;;;;;;5023113;28;20505;-91
2021/07/11 03:57:12;;;;;;;2.60;2.40;;;17.90;99.90;;;;;;5027897;28;20531;-91
2021/07/11 03:59:45;;;;;;;3.00;2.27;;;17.90;99.90;;;;;;5002265;28;20530;-92
2021/07/11 04:02:21;;;;;;;3.70;2.50;;;17.90;99.90;;;;;;5003922;28;20502;-92
2021/07/11 04:05:01;;;;;;;3.93;3.30;;;17.90;99.90;;;;;;5004201;28;20467;-92
2021/07/11 04:07:35;;;;;;;3.27;2.40;;;17.90;99.90;;;;;;5019802;28;20454;-92
2021/07/11 04:10:10;;;;;;;2.50;2.30;;;17.90;99.90;;;;;;5026867;28;20454;-91
2021/07/11 04:12:47;;;;;;;2.57;2.37;;;17.90;99.90;;;;;;5030985;28;20453;-93
2021/07/11 04:15:19;;;;;;;2.60;2.20;;;18.00;99.90;;;;;;5039708;28;20446;-93
2021/07/11 04:17:53;;;;;;;2.90;2.70;;;18.10;99.90;;;;;;5033934;28;20438;-93
2021/07/11 04:20:23;;;;;;;3.17;2.97;;;18.00;99.90;;;;;;5031409;28;20454;-92
2021/07/11 04:23:02;;;;;;;2.77;2.57;;;18.00;99.90;;;;;;5020178;28;20654;-92
2021/07/11 04:25:34;;;;;;;3.63;2.47;;;18.10;99.90;;;;;;5021376;28;21066;-92
2021/07/11 04:28:11;;;;;;;2.57;2.30;;;18.20;99.90;;;;;;5022159;28;20451;-90
2021/07/11 04:30:46;;;;;;;3.40;3.10;;;18.20;99.90;;;;;;5020366;28;20485;-91
2021/07/11 04:33:18;;;;;;;2.33;2.00;;;18.20;99.90;;;;;;5023742;28;20460;-91
2021/07/11 04:35:52;;;;;;;2.87;2.20;;;18.20;99.90;;;;;;5039432;28;20481;-93
2021/07/11 04:38:33;;;;;;;3.37;3.07;;;18.20;99.90;;;;;;5031917;28;20466;-91
2021/07/11 04:41:13;;;;;;;2.60;2.37;;;18.30;99.90;;;;;;5002916;28;20542;-91
2021/07/11 04:43:46;;;;;;;2.27;2.07;;;18.30;99.90;;;;;;5001514;28;20483;-91
2021/07/11 04:46:21;;;;;;;2.60;2.40;;;18.30;99.90;;;;;;5000697;28;20482;-92
2021/07/11 04:48:53;;;;;;;3.03;2.40;;;18.30;99.90;;;;;;5000420;28;20458;-92
2021/07/11 04:51:24;;;;;;;9.70;2.30;;;18.40;99.90;;;;;;5003534;28;20481;-91
2021/07/11 04:53:52;;;;;;;2.60;2.40;;;18.40;99.90;;;;;;5003016;28;20565;-87
2021/07/11 04:56:18;;;;;;;3.30;2.60;;;18.50;99.90;;;;;;5010816;28;20458;-84
2021/07/11 04:58:45;;;;;;;1.93;1.83;;;18.50;99.90;;;;;;5017561;28;20961;-84
2021/07/11 05:01:12;;;;;;;3.47;3.17;;;18.50;99.90;;;;;;5018597;28;20446;-84
2021/07/11 05:03:39;;;;;;;4.33;2.70;;;18.50;99.90;;;;;;5019424;28;20493;-85
2021/07/11 05:06:05;;;;;;;2.63;2.43;;;18.60;99.90;;;;;;5018007;28;20455;-83
2021/07/11 05:08:32;;;;;;;2.43;2.23;;;18.60;99.90;;;;;;5020607;28;20455;-83
2021/07/11 05:11:01;;;;;;;2.97;2.77;;;18.60;99.90;;;;;;5018122;28;20939;-82
2021/07/11 05:13:27;;;;;;;2.83;2.50;;;18.50;99.90;;;;;;5018536;28;20453;-85
2021/07/11 05:15:54;;;;;;;2.80;2.30;;;18.50;99.90;;;;;;5022215;28;20479;-84
2021/07/11 05:18:21;;;;;;;2.60;2.30;;;18.50;99.90;;;;;;5021646;28;20455;-84
2021/07/11 05:20:47;;;;;;;2.50;2.30;;;18.50;99.90;;;;;;5021389;28;20455;-85
2021/07/11 05:23:14;;;;;;;3.37;3.00;;;18.50;99.90;;;;;;5022256;28;20478;-84
2021/07/11 05:25:41;;;;;;;3.07;2.80;;;18.50;99.90;;;;;;5025332;28;20466;-83
2021/07/11 05:28:09;;;;;;;3.30;2.73;;;18.50;99.90;;;;;;5029186;28;20491;-84
2021/07/11 05:30:36;;;;;;;2.90;2.70;;;18.50;99.90;;;;;;5025007;28;20446;-85
2021/07/11 05:33:03;;;;;;;3.00;2.80;;;18.50;99.90;;;;;;5023105;28;20911;-84
2021/07/11 05:35:30;;;;;;;2.63;2.40;;;18.60;99.90;;;;;;5024422;28;20469;-84
2021/07/11 05:37:56;;;;;;;3.57;3.17;;;18.50;99.90;;;;;;5023144;28;20455;-84
2021/07/11 05:40:23;;;;;;;4.50;2.67;;;18.60;99.90;;;;;;5032373;28;20430;-84
2021/07/11 05:42:50;;;;;;;4.10;2.90;;;18.70;99.90;;;;;;5034326;28;20474;-83
2021/07/11 05:45:18;;;;;;;3.03;2.70;;;18.70;99.90;;;;;;5023230;28;20468;-84
2021/07/11 05:47:46;;;;;;;2.60;2.40;;;18.70;99.90;;;;;;5021909;28;20443;-84
2021/07/11 05:50:14;;;;;;;3.50;3.20;;;18.90;99.90;;;;;;5021621;28;20451;-83
2021/07/11 05:52:41;;;;;;;4.43;3.63;;;19.10;99.90;;;;;;5020878;28;20447;-84
2021/07/11 05:55:09;;;;;;;2.70;2.50;;;19.30;99.90;;;;;;5022806;28;20564;-84
2021/07/11 05:57:36;;;;;;;2.80;2.50;;;19.40;99.90;;;;;;5021555;28;20504;-83
2021/07/11 06:00:06;;;;;;;4.53;2.53;;;19.60;99.90;;;;;;5022521;28;20452;-83
2021/07/11 06:02:35;;;;;;;3.33;3.00;;;19.70;99.90;;;;;;5029137;28;20470;-83
2021/07/11 06:05:02;;;;;;;2.87;2.53;;;19.90;99.90;;;;;;5031374;28;20468;-83
2021/07/11 06:07:29;;;;;;;2.97;2.77;;;20.10;99.90;;;;;;5026848;28;20467;-84
2021/07/11 06:09:57;;;;;;;3.20;2.40;;;20.50;99.90;;;;;;5022096;28;20466;-83
2021/07/11 06:12:24;;;;;;;2.60;2.30;;;20.90;99.90;;;;;;5020338;28;20454;-83
2021/07/11 06:14:51;;;;;;;3.50;2.80;;;21.90;99.90;;;;;;5023211;28;20475;-83
2021/07/11 06:17:18;;;;;;;2.97;2.40;;;22.70;99.90;;;;;;5033095;28;20494;-84
2021/07/11 06:19:46;;;;;;;4.00;2.53;;;22.80;99.90;;;;;;5025402;28;20453;-84
2021/07/11 06:22:13;;;;;;;2.63;2.43;;;22.90;99.90;;;;;;5027409;28;20517;-84
2021/07/11 06:24:40;;;;;;;2.20;2.00;;;23.20;99.90;;;;;;5030165;28;20484;-84
2021/07/11 06:27:07;;;;;;;2.70;2.50;;;22.90;99.90;;;;;;5026764;28;20481;-85
2021/07/11 06:29:35;;;;;;;2.93;2.40;;;22.80;99.90;;;;;;5024370;28;20447;-85
2021/07/11 06:32:02;;;;;;;2.97;2.40;;;23.20;99.90;;;;;;5020630;28;20493;-88
2021/07/11 06:34:29;;;;;;;3.77;2.33;;;24.30;99.20;;;;;;5024284;28;20478;-85
2021/07/11 06:36:57;;;;;;;3.47;2.20;;;24.70;97.60;;;;;;5014674;28;20518;-85
2021/07/11 06:39:24;;;;;;;1.97;1.87;;;25.30;95.80;;;;;;5015475;28;20464;-84
2021/07/11 06:41:50;;;;;;;3.07;2.50;;;26.00;93.50;;;;;;5026245;28;20437;-87
2021/07/11 06:44:18;;;;;;;2.27;1.87;;;26.60;92.50;;;;;;5035591;28;20468;-88
2021/07/11 06:46:44;;;;;;;2.57;2.37;;;27.40;90.00;;;;;;5020263;28;20558;-86
2021/07/11 06:49:16;;;;;;;2.63;2.03;;;27.80;85.60;;;;;;5017017;28;20450;-86
2021/07/11 06:51:43;;;;;;;2.20;2.00;;;28.40;82.90;;;;;;5015865;28;20516;-86
2021/07/11 06:54:39;;;;;;;2.27;2.07;;;29.00;80.00;;;;;;5017440;28;20524;-87
2021/07/11 06:57:24;;;;;;;2.37;2.03;;;29.80;75.90;;;;;;5017713;28;20454;-84
2021/07/11 07:00:04;;;;;;;;;;;;;;;;;;;;;
2021/07/11 07:02:59;;;;;;;1.93;1.73;;;29.50;72.90;;;;;;5019004;28;20772;-86
2021/07/11 07:05:35;;;;;;;2.43;2.23;;;30.00;70.50;;;;;;5013311;28;20540;-86
2021/07/11 07:08:18;;;;;;;2.20;1.80;;;30.70;69.50;;;;;;5019124;28;20453;-85
2021/07/11 07:10:47;;;;;;;3.33;2.40;;;30.90;67.80;;;;;;4999500;28;20438;-86
2021/07/11 07:13:24;;;;;;;2.20;2.00;;;31.10;65.80;;;;;;5000919;28;20482;-90
2021/07/11 07:15:51;;;;;;;2.50;1.93;;;31.50;64.60;;;;;;5106275;23;20489;-81
2021/07/11 07:18:18;;;;;;;2.70;2.17;;;30.50;64.60;;;;;;5100943;28;20450;-81
2021/07/11 07:20:46;;;;;;;4.03;2.70;;;30.20;65.80;;;;;;5112776;28;20434;-79
2021/07/11 07:23:13;;;;;;;2.53;2.33;;;30.60;64.70;;;;;;5112747;28;20438;-81
2021/07/11 07:25:40;;;;;;;3.17;2.53;;;30.70;65.50;;;;;;5106989;28;20459;-81
2021/07/11 07:28:11;;;;;;;2.10;1.80;;;31.50;63.00;;;;;;5091237;28;20439;-81
2021/07/11 07:30:38;;;;;;;3.23;2.00;;;32.10;60.70;;;;;;5086982;28;20446;-82
2021/07/11 07:33:05;;;;;;;2.30;2.03;;;32.60;59.60;;;;;;5079389;28;20474;-81
2021/07/11 07:35:32;;;;;;;2.37;2.17;;;31.60;59.20;;;;;;5078696;28;20846;-81
2021/07/11 07:37:59;;;;;;;2.87;2.00;;;30.00;61.20;;;;;;5080348;28;20859;-81
2021/07/11 07:40:25;;;;;;;2.83;2.40;;;28.20;66.60;;;;;;5100397;28;20446;-83
2021/07/11 07:42:52;;;;;;;2.43;2.00;;;27.60;69.50;;;;;;5092438;28;20514;-82
2021/07/11 07:45:21;;;;;;;2.83;2.20;;;27.00;72.10;;;;;;5080786;28;20471;-83
2021/07/11 07:47:48;;;;;;;2.47;2.27;;;26.60;73.50;;;;;;5079725;28;20466;-83
2021/07/11 07:50:16;;;;;;;2.37;1.90;;;27.60;72.70;;;;;;5086805;28;20973;-81
2021/07/11 07:52:43;;;;;;;2.00;1.80;;;29.00;68.10;;;;;;5088781;28;20439;-82
2021/07/11 07:55:10;;;;;;;2.60;2.40;;;29.20;66.40;;;;;;5080417;28;20466;-82
2021/07/11 07:57:37;;;;;;;3.77;2.00;;;28.50;67.50;;;;;;5080683;28;20491;-83
2021/07/11 08:00:06;;;;;;;3.50;2.40;;;28.40;69.60;;;;;;5094683;28;20431;-83
2021/07/11 08:02:34;;;;;;;3.60;2.17;;;29.10;67.20;;;;;;5104284;28;20965;-83
2021/07/11 08:05:01;;;;;;;2.63;2.33;;;30.00;64.80;;;;;;5101039;28;20466;-82
2021/07/11 08:07:28;;;;;;;2.50;2.30;;;29.30;65.30;;;;;;5103139;28;20510;-84
2021/07/11 08:09:55;;;;;;;2.60;2.40;;;28.70;66.80;;;;;;5104904;28;20503;-83
2021/07/11 08:12:21;;;;;;;2.20;2.00;;;27.90;69.30;;;;;;5095923;28;20444;-82
2021/07/11 08:14:48;;;;;;;2.30;2.10;;;27.20;72.40;;;;;;5097726;28;20480;-80
2021/07/11 08:17:15;;;;;;;3.23;2.93;;;26.30;74.10;;;;;;5119968;28;20442;-81
2021/07/11 08:19:43;;;;;;;3.30;2.70;;;25.60;78.20;;;;;;5119103;28;20441;-82
2021/07/11 08:22:10;;;;;;;3.30;2.60;;;25.30;80.30;;;;;;5096930;28;20936;-83
2021/07/11 08:24:37;;;;;;;2.10;2.00;;;26.00;80.30;;;;;;5092764;28;20450;-82
2021/07/11 08:27:04;;;;;;;2.90;2.70;;;27.10;76.90;;;;;;5094688;28;20439;-84
2021/07/11 08:29:31;;;;;;;2.23;2.03;;;28.60;72.60;;;;;;5089907;28;20530;-83
2021/07/11 08:31:58;;;;;;;2.60;2.40;;;29.40;68.50;;;;;;5091707;28;20438;-83
2021/07/11 08:34:25;;;;;;;2.40;2.20;;;29.10;67.90;;;;;;5088858;28;20483;-83
2021/07/11 08:36:59;;;;;;;2.60;2.17;;;29.00;68.30;;;;;;5098578;28;20438;-85
2021/07/11 08:39:26;;;;;;;2.20;2.00;;;29.80;66.70;;;;;;5089056;28;20440;-83
2021/07/11 08:41:57;;;;;;;2.30;2.00;;;32.20;61.10;;;;;;5088144;28;20931;-82
2021/07/11 08:44:25;;;;;;;3.00;2.40;;;32.10;58.80;;;;;;5091249;28;20448;-84
2021/07/11 08:46:51;;;;;;;3.20;1.80;;;31.80;59.20;;;;;;5094764;28;20505;-82
2021/07/11 08:49:18;;;;;;;2.40;2.20;;;30.70;59.30;;;;;;5092977;28;20507;-82
2021/07/11 08:51:46;;;;;;;2.90;1.97;;;30.00;60.60;;;;;;5086507;28;20436;-82
2021/07/11 08:54:16;;;;;;;3.10;2.20;;;29.50;62.90;;;;;;5090186;28;21002;-82
2021/07/11 08:56:45;;;;;;;2.17;2.03;;;29.00;63.30;;;;;;5091951;28;20549;-82
2021/07/11 08:59:12;;;;;;;2.47;2.27;;;28.20;64.70;;;;;;5092712;28;20432;-83
2021/07/11 09:01:41;;;;;;;2.30;2.10;;;27.30;68.30;;;;;;5088130;28;20442;-80
2021/07/11 09:04:12;;;;;;;3.03;1.80;;;26.80;71.70;;;;;;5097049;28;20437;-82
2021/07/11 09:06:44;;;;;;;2.30;1.83;;;26.40;72.10;;;;;;5098717;28;20431;-82
2021/07/11 09:09:11;;;;;;;2.43;2.23;;;26.00;72.40;;;;;;5092048;28;20431;-82
2021/07/11 09:11:50;;;;;;;1.77;1.67;;;25.60;71.60;;;;;;5082004;28;20438;-82
2021/07/11 09:14:19;;;;;;;2.23;2.10;;;25.20;72.40;;;;;;5081235;28;20479;-83
2021/07/11 09:16:46;;;;;;;2.60;1.93;;;24.80;73.40;;;;;;5083742;28;20515;-80
2021/07/11 09:19:24;;;;;;;3.47;2.10;;;24.50;75.00;;;;;;5080361;28;20445;-81
2021/07/11 09:21:53;;;;;;;2.90;2.70;;;24.30;76.20;;;;;;5079652;28;20439;-80
2021/07/11 09:24:20;;;;;;;3.03;2.73;;;24.10;76.70;;;;;;5085832;28;20556;-80
2021/07/11 09:26:50;;;;;;;2.50;2.30;;;24.10;77.20;;;;;;5085009;28;20450;-81
2021/07/11 09:29:26;;;;;;;2.27;1.60;;;24.00;77.80;;;;;;5084424;28;20529;-80
2021/07/11 09:31:53;;;;;;;2.33;2.13;;;23.90;78.50;;;;;;5084027;28;20947;-81
2021/07/11 09:34:24;;;;;;;2.73;2.00;;;23.80;79.50;;;;;;5084399;28;21002;-81
2021/07/11 09:37:05;;;;;;;1.97;1.80;;;23.80;80.80;;;;;;5083537;28;20449;-81
2021/07/11 09:39:33;;;;;;;4.93;2.63;;;23.70;81.90;;;;;;5084853;28;20449;-80
2021/07/11 09:42:01;;;;;;;2.07;1.67;;;23.70;82.70;;;;;;5087855;28;20448;-81
2021/07/11 09:44:40;;;;;;;2.07;1.93;;;23.80;81.90;;;;;;5089074;28;20503;-81
2021/07/11 09:47:18;;;;;;;3.50;2.40;;;24.00;80.30;;;;;;5073806;28;20962;-80
2021/07/11 09:49:55;;;;;;;3.90;1.70;;;24.10;78.70;;;;;;5074694;28;20435;-81
2021/07/11 09:52:22;;;;;;;3.10;2.37;;;24.30;78.20;;;;;;5074834;28;20439;-81
2021/07/11 09:54:54;;;;;;;3.27;1.90;;;24.60;78.90;;;;;;5081647;28;20486;-80
2021/07/11 09:57:31;;;;;;;2.67;2.30;;;24.80;77.00;;;;;;5102548;28;20472;-81
2021/07/11 10:00:04;;;;;;;2.80;2.17;;;25.10;76.80;;;;;;5094514;28;20443;-81
2021/07/11 10:02:31;;;;;;;5.03;2.30;;;25.20;75.80;;;;;;5099338;28;20826;-81
2021/07/11 10:04:58;;;;;;;2.30;2.10;;;25.50;76.00;;;;;;5094244;28;20454;-81
2021/07/11 10:07:25;;;;;;;2.50;2.03;;;25.60;75.60;;;;;;5100557;28;20438;-81
2021/07/11 10:09:52;;;;;;;2.70;1.80;;;26.10;74.70;;;;;;5100256;28;20525;-81
2021/07/11 10:12:19;;;;;;;1.97;1.83;;;26.40;73.70;;;;;;5087612;28;20442;-81
2021/07/11 10:14:45;;;;;;;2.60;2.40;;;27.00;72.20;;;;;;5091185;28;20467;-80
2021/07/11 10:17:15;;;;;;;2.27;2.07;;;27.50;70.60;;;;;;5096331;28;20950;-82
2021/07/11 10:19:46;;;;;;;3.07;2.30;;;28.50;67.50;;;;;;5091859;28;20495;-81
2021/07/11 10:22:14;;;;;;;2.60;2.40;;;28.50;64.80;;;;;;5088596;28;20436;-82
2021/07/11 10:24:43;;;;;;;2.20;1.97;;;28.60;66.50;;;;;;5091539;28;20453;-80
2021/07/11 10:27:26;;;;;;;2.70;2.50;;;28.60;65.50;;;;;;5090616;28;20447;-80
2021/07/11 10:29:54;;;;;;;1.97;1.87;;;28.40;66.10;;;;;;5091068;28;20456;-81
2021/07/11 10:32:26;;;;;;;2.30;2.10;;;28.30;67.00;;;;;;5091346;28;20439;-80
2021/07/11 10:34:53;;;;;;;2.70;2.50;;;27.60;67.50;;;;;;5090707;28;20483;-82
2021/07/11 10:37:22;;;;;;;2.67;2.10;;;27.20;68.50;;;;;;5091120;28;20442;-81
2021/07/11 10:40:07;;;;;;;2.43;2.23;;;27.30;69.10;;;;;;5096070;28;20528;-83
2021/07/11 10:42:34;;;;;;;4.20;2.20;;;27.80;68.60;;;;;;5080869;28;20446;-82
2021/07/11 10:45:08;;;;;;;2.17;2.00;;;28.00;67.10;;;;;;5080642;28;21068;-81
2021/07/11 10:47:37;;;;;;;2.13;1.93;;;28.10;67.10;;;;;;5085192;28;20450;-80
2021/07/11 10:50:09;;;;;;;2.57;2.37;;;28.20;66.70;;;;;;5094006;28;20916;-80
2021/07/11 10:52:40;;;;;;;3.57;2.53;;;29.00;65.70;;;;;;5090584;28;20440;-81
2021/07/11 10:55:11;;;;;;;2.83;2.53;;;29.20;64.10;;;;;;5079198;28;20478;-82
2021/07/11 10:57:39;;;;;;;3.67;3.30;;;29.50;63.40;;;;;;5091520;28;20435;-82
2021/07/11 11:00:11;;;;;;;3.03;2.80;;;29.10;63.10;;;;;;5091444;28;20457;-82
2021/07/11 11:02:40;;;;;;;3.53;3.07;;;28.50;65.30;;;;;;5088335;28;20451;-82
2021/07/11 11:05:12;;;;;;;2.83;2.53;;;28.10;66.80;;;;;;5087118;28;20464;-81
2021/07/11 11:07:43;;;;;;;3.90;2.37;;;27.70;68.10;;;;;;5088550;28;21139;-82
2021/07/11 11:10:28;;;;;;;2.93;2.73;;;27.20;71.00;;;;;;5079700;28;20967;-83
2021/07/11 11:13:08;;;;;;;4.63;3.60;;;26.70;72.10;;;;;;5080835;28;20455;-82
2021/07/11 11:15:44;;;;;;;2.53;2.33;;;26.00;73.80;;;;;;5088737;28;20482;-82
2021/07/11 11:18:18;;;;;;;3.17;2.60;;;25.40;76.50;;;;;;5080057;28;20450;-81
2021/07/11 11:20:49;;;;;;;3.83;3.03;;;25.20;76.40;;;;;;5078817;28;20443;-82
2021/07/11 11:23:16;;;;;;;2.73;2.40;;;25.00;76.70;;;;;;5091927;28;20458;-80
2021/07/11 11:25:44;;;;;;;3.00;2.20;;;24.90;75.20;;;;;;5097850;28;20462;-81
2021/07/11 11:28:11;;;;;;;2.70;2.50;;;25.00;77.10;;;;;;5090013;28;20450;-81
2021/07/11 11:30:40;;;;;;;3.10;2.03;;;25.00;77.00;;;;;;5090689;28;20444;-81
2021/07/11 11:33:07;;;;;;;3.63;2.30;;;25.10;76.80;;;;;;5090431;28;20445;-81
2021/07/11 11:35:37;;;;;;;2.77;2.40;;;24.70;77.20;;;;;;5090238;28;20486;-81
2021/07/11 11:38:06;;;;;;;2.50;2.30;;;24.60;77.60;;;;;;5091658;28;20489;-82
2021/07/11 11:40:35;;;;;;;2.50;2.07;;;24.70;77.00;;;;;;5091870;28;20443;-81
2021/07/11 11:43:03;;;;;;;4.00;2.90;;;24.80;77.30;;;;;;5092378;28;20451;-81
2021/07/11 11:45:32;;;;;;;3.03;2.57;;;24.80;76.90;;;;;;5096901;28;20462;-83
2021/07/11 11:48:01;;;;;;;2.10;1.90;;;24.90;77.30;;;;;;5096439;28;20442;-82
2021/07/11 11:50:29;;;;;;;2.20;1.97;;;24.90;76.90;;;;;;5094102;28;20476;-81
2021/07/11 11:53:09;;;;;;;2.60;2.17;;;25.00;77.50;;;;;;5092164;28;20442;-83
2021/07/11 11:55:38;;;;;;;2.33;2.07;;;25.00;77.00;;;;;;5079377;28;20483;-82
2021/07/11 11:58:06;;;;;;;5.23;2.23;;;25.30;76.80;;;;;;5078963;28;20450;-83
2021/07/11 12:00:34;;;;;;;4.03;3.67;;;25.70;76.60;;;;;;5097860;28;20510;-80
2021/07/11 12:03:01;;;;;;;3.03;2.30;;;26.10;73.70;;;;;;5098160;28;20498;-81
2021/07/11 12:05:34;;;;;;;1.83;1.73;;;26.10;71.20;;;;;;5098038;28;20459;-80
2021/07/11 12:08:01;;;;;;;2.60;2.40;;;25.80;71.60;;;;;;5091065;28;20452;-82
2021/07/11 12:10:30;;;;;;;2.40;2.20;;;25.80;72.50;;;;;;5077417;28;20493;-81
2021/07/11 12:12:58;;;;;;;2.97;2.00;;;26.60;72.90;;;;;;5075603;28;20933;-83
2021/07/11 12:15:30;;;;;;;2.70;1.90;;;27.20;67.60;;;;;;5089860;28;20497;-82
2021/07/11 12:18:01;;;;;;;2.17;1.80;;;26.80;67.20;;;;;;5096587;28;20447;-82
2021/07/11 12:20:28;;;;;;;2.20;1.90;;;26.70;68.00;;;;;;5099049;28;20936;-82
2021/07/11 12:22:55;;;;;;;2.23;1.80;;;26.20;68.70;;;;;;5100284;28;20446;-82
2021/07/11 12:25:24;;;;;;;3.37;2.03;;;26.10;69.90;;;;;;5096945;28;20978;-82
2021/07/11 12:28:00;;;;;;;2.63;2.43;;;25.80;72.10;;;;;;5078362;28;20458;-82
2021/07/11 12:30:34;;;;;;;2.27;1.77;;;25.40;77.90;;;;;;5078880;28;20994;-82
2021/07/11 12:33:01;;;;;;;3.50;2.70;;;25.50;77.90;;;;;;5094543;28;20458;-81
2021/07/11 12:35:28;;;;;;;2.90;2.60;;;25.50;79.10;;;;;;5113083;28;20493;-81
2021/07/11 12:37:56;;;;;;;2.63;2.27;;;25.70;76.60;;;;;;5104440;28;20443;-82
2021/07/11 12:40:25;;;;;;;2.50;2.30;;;26.20;76.60;;;;;;5108933;28;20459;-82
2021/07/11 12:43:07;;;;;;;2.40;2.20;;;27.60;75.40;;;;;;5115453;28;20452;-82
2021/07/11 12:45:34;;;;;;;3.13;2.87;;;29.40;67.10;;;;;;5108342;28;20465;-82
2021/07/11 12:48:01;;;;;;;2.40;2.20;;;31.80;61.10;;;;;;5108158;28;20474;-83
2021/07/11 12:50:36;;;;;;;2.50;2.30;;;32.50;57.70;;;;;;5104455;28;20823;-80
2021/07/11 12:53:03;;;;;;;2.70;2.50;;;32.40;57.10;;;;;;5096105;28;20455;-81
2021/07/11 12:55:30;;;;;;;2.43;2.20;;;30.90;59.00;;;;;;5078369;28;20483;-81
2021/07/11 12:57:57;;;;;;;5.03;2.43;;;29.70;62.10;;;;;;5077170;28;20443;-83
2021/07/11 13:00:33;;;;;;;2.80;2.47;;;28.20;66.10;;;;;;5080253;28;20485;-81
2021/07/11 13:03:02;;;;;;;2.50;2.30;;;27.10;68.60;;;;;;5080886;28;20548;-82
2021/07/11 13:05:34;;;;;;;3.30;2.30;;;27.40;70.00;;;;;;5097314;28;20458;-81
2021/07/11 13:08:10;;;;;;;2.53;2.33;;;27.90;68.40;;;;;;5104943;28;20492;-83
2021/07/11 13:10:39;;;;;;;2.90;2.67;;;27.40;68.30;;;;;;5109927;28;20449;-82
2021/07/11 13:13:07;;;;;;;4.67;4.30;;;26.70;68.80;;;;;;5098290;28;20444;-82
2021/07/11 13:15:43;;;;;;;2.90;2.60;;;26.20;72.90;;;;;;5075470;22;20870;-82
2021/07/11 13:18:15;;;;;;;2.50;2.20;;;25.90;75.10;;;;;;5040000;28;20938;-81
2021/07/11 13:20:46;;;;;;;2.57;2.37;;;25.80;74.20;;;;;;5041269;28;20452;-83
2021/07/11 13:23:13;;;;;;;2.63;2.40;;;25.50;75.70;;;;;;5040106;28;20448;-82
2021/07/11 13:25:42;;;;;;;4.40;3.10;;;25.30;76.80;;;;;;5048421;28;20460;-84
2021/07/11 13:28:10;;;;;;;2.40;2.20;;;25.20;78.50;;;;;;5058769;28;20455;-82
2021/07/11 13:30:42;;;;;;;2.47;2.27;;;25.10;77.80;;;;;;5057957;28;21012;-83
2021/07/11 13:33:09;;;;;;;3.03;2.53;;;24.70;78.20;;;;;;5060355;28;20472;-85
2021/07/11 13:35:37;;;;;;;6.13;3.20;;;24.50;80.30;;;;;;5058517;28;20876;-82
2021/07/11 13:38:04;;;;;;;3.13;2.83;;;24.50;78.50;;;;;;5057431;28;20448;-83
2021/07/11 13:40:31;;;;;;;3.40;2.00;;;24.50;77.80;;;;;;5057946;28;20452;-83
2021/07/11 13:42:58;;;;;;;2.50;2.30;;;24.60;78.60;;;;;;5058916;28;20450;-83
2021/07/11 13:45:24;;;;;;;3.53;2.03;;;24.80;79.00;;;;;;5058152;28;20468;-88
2021/07/11 13:47:53;;;;;;;3.23;3.03;;;25.00;79.20;;;;;;5058023;28;20463;-83
2021/07/11 13:50:20;;;;;;;2.73;2.53;;;24.80;79.60;;;;;;5058384;28;20956;-82
2021/07/11 13:52:48;;;;;;;3.47;2.57;;;24.40;83.00;;;;;;5062996;28;21036;-83
2021/07/11 13:55:18;;;;;;;3.30;2.57;;;24.10;85.20;;;;;;5057877;28;20482;-82
2021/07/11 13:57:46;;;;;;;2.33;2.23;;;23.70;85.90;;;;;;5057022;28;20454;-84
2021/07/11 14:00:14;;;;;;;3.20;2.93;;;23.40;86.90;;;;;;5057831;28;20508;-84
2021/07/11 14:02:41;;;;;;;2.17;2.00;;;23.30;89.60;;;;;;5060490;28;20458;-82
2021/07/11 14:05:10;;;;;;;5.87;3.20;;;23.80;88.90;;;;;;5056106;28;20461;-81
2021/07/11 14:07:36;;;;;;;2.43;2.10;;;24.30;88.00;;;;;;5066400;28;20568;-82
2021/07/11 14:10:04;;;;;;;2.30;2.10;;;24.60;84.60;;;;;;5055345;28;20464;-83
2021/07/11 14:12:30;;;;;;;4.47;2.93;;;25.00;81.80;;;;;;5069138;28;20434;-81
2021/07/11 14:14:57;;;;;;;2.80;2.47;;;24.90;82.20;;;;;;5063162;28;20468;-82
2021/07/11 14:17:24;;;;;;;2.73;2.20;;;24.90;84.30;;;;;;5050338;28;20432;-82
2021/07/11 14:19:51;;;;;;;2.30;2.10;;;25.50;82.40;;;;;;5056134;28;20451;-82
2021/07/11 14:22:19;;;;;;;2.20;2.00;;;26.00;78.30;;;;;;5050136;28;20961;-83
2021/07/11 14:24:47;;;;;;;2.50;2.30;;;26.30;75.70;;;;;;5055838;28;20461;-82
2021/07/11 14:27:14;;;;;;;1.70;1.60;;;26.60;74.80;;;;;;5054209;28;20456;-83